createdAt,value
2018-12-14T00:00:25.500Z,9.10
2018-12-14T00:02:52.601Z,9.97
2018-12-14T00:05:19.724Z,9.27
2018-12-14T00:07:46.803Z,7.50
2018-12-14T00:10:13.925Z,9.17
2018-12-14T00:12:41.012Z,8.40
2018-12-14T00:15:08.116Z,9.03
2018-12-14T00:17:35.180Z,8.30
2018-12-14T00:20:03.460Z,8.40
2018-12-14T00:22:30.544Z,8.77
2018-12-14T00:24:57.656Z,9.60
2018-12-14T00:27:24.769Z,9.00
2018-12-14T00:29:51.880Z,8.47
2018-12-14T00:32:18.983Z,9.03
2018-12-14T00:34:46.095Z,8.40
2018-12-14T00:37:13.169Z,9.73
2018-12-14T00:39:40.281Z,9.97
2018-12-14T00:42:07.360Z,7.77
2018-12-14T00:44:34.474Z,7.83
2018-12-14T00:47:01.564Z,7.00
2018-12-14T00:49:28.656Z,8.73
2018-12-14T00:51:55.749Z,8.73
2018-12-14T00:54:22.843Z,8.10
2018-12-14T00:56:49.934Z,7.90
2018-12-14T00:59:17.036Z,9.20
2018-12-14T01:01:44.103Z,8.73
2018-12-14T01:04:11.192Z,9.37
2018-12-14T01:06:38.298Z,9.00
2018-12-14T01:09:05.437Z,8.27
2018-12-14T01:11:32.544Z,8.63
2018-12-14T01:13:59.673Z,7.77
2018-12-14T01:16:26.747Z,7.60
2018-12-14T01:18:53.857Z,11.27
2018-12-14T01:21:20.937Z,8.07
2018-12-14T01:23:48.020Z,9.43
2018-12-14T01:26:15.146Z,8.37
2018-12-14T01:28:42.208Z,7.70
2018-12-14T01:31:09.301Z,6.73
2018-12-14T01:33:36.850Z,6.57
2018-12-14T01:36:03.937Z,9.03
2018-12-14T01:38:31.036Z,9.90
2018-12-14T01:40:58.128Z,10.07
2018-12-14T01:43:25.241Z,7.70
2018-12-14T01:45:52.421Z,7.07
2018-12-14T01:48:19.512Z,9.07
2018-12-14T01:52:11.290Z,8.77
2018-12-14T01:54:38.418Z,8.17
2018-12-14T01:57:05.529Z,7.23
2018-12-14T01:59:32.656Z,10.27
2018-12-14T02:01:59.744Z,7.77
2018-12-14T02:04:26.850Z,7.03
2018-12-14T02:06:54.001Z,7.10
2018-12-14T02:09:21.099Z,7.03
2018-12-14T02:11:48.180Z,7.83
2018-12-14T02:14:15.264Z,7.30
2018-12-14T02:16:42.354Z,10.00
2018-12-14T02:19:09.446Z,8.17
2018-12-14T02:21:36.521Z,7.70
2018-12-14T02:24:03.608Z,8.57
2018-12-14T02:26:30.695Z,7.00
2018-12-14T02:28:57.799Z,7.27
2018-12-14T02:31:24.985Z,7.43
2018-12-14T02:33:52.077Z,8.57
2018-12-14T02:36:19.157Z,7.33
2018-12-14T02:38:46.212Z,8.43
2018-12-14T02:41:13.324Z,7.87
2018-12-14T02:43:40.456Z,7.30
2018-12-14T02:46:07.576Z,7.43
2018-12-14T02:48:34.777Z,8.77
2018-12-14T02:51:01.852Z,8.03
2018-12-14T02:53:28.936Z,7.37
2018-12-14T02:55:56.048Z,7.63
2018-12-14T02:58:23.144Z,8.60
2018-12-14T03:00:50.235Z,8.03
2018-12-14T03:03:17.336Z,7.33
2018-12-14T03:05:44.434Z,7.83
2018-12-14T03:08:11.547Z,6.90
2018-12-14T03:10:38.706Z,8.13
2018-12-14T03:13:05.785Z,8.13
2018-12-14T03:15:32.884Z,8.70
2018-12-14T03:17:59.969Z,8.83
2018-12-14T03:20:27.068Z,8.53
2018-12-14T03:22:54.163Z,8.13
2018-12-14T03:25:21.258Z,7.73
2018-12-14T03:27:48.328Z,9.37
2018-12-14T03:30:15.431Z,10.17
2018-12-14T03:32:42.528Z,8.63
2018-12-14T03:35:09.641Z,8.33
2018-12-14T03:37:36.807Z,7.60
2018-12-14T03:40:04.040Z,8.23
2018-12-14T03:42:34.587Z,7.60
2018-12-14T03:44:58.284Z,8.60
2018-12-14T03:47:25.392Z,7.43
2018-12-14T03:49:52.488Z,10.33
2018-12-14T03:52:19.614Z,7.83
2018-12-14T03:54:46.712Z,9.87
2018-12-14T03:57:13.797Z,8.60
2018-12-14T03:59:41.091Z,8.20
2018-12-14T04:02:08.181Z,8.63
2018-12-14T04:04:35.284Z,7.97
2018-12-14T04:07:02.409Z,9.13
2018-12-14T04:09:29.520Z,9.37
2018-12-14T04:11:56.636Z,10.57
2018-12-14T04:14:23.740Z,7.63
2018-12-14T04:16:50.839Z,9.53
2018-12-14T04:19:17.904Z,8.83
2018-12-14T04:21:45.007Z,8.63
2018-12-14T04:24:12.094Z,8.30
2018-12-14T04:26:39.199Z,10.43
2018-12-14T04:29:06.264Z,7.70
2018-12-14T04:31:33.333Z,8.77
2018-12-14T04:34:00.432Z,10.23
2018-12-14T04:37:30.402Z,8.93
2018-12-14T04:39:57.496Z,7.93
2018-12-14T04:42:24.608Z,8.10
2018-12-14T04:44:51.687Z,10.30
2018-12-14T04:47:18.783Z,8.60
2018-12-14T04:49:45.867Z,8.83
2018-12-14T04:52:12.941Z,10.93
2018-12-14T04:54:40.017Z,9.03
2018-12-14T04:57:07.084Z,8.87
2018-12-14T04:59:34.160Z,9.40
2018-12-14T05:02:01.241Z,8.60
2018-12-14T05:04:28.333Z,9.60
2018-12-14T05:06:55.428Z,10.17
2018-12-14T05:09:22.504Z,8.37
2018-12-14T05:15:19.501Z,9.60
2018-12-14T05:17:46.603Z,10.60
2018-12-14T05:20:13.696Z,9.37
2018-12-14T05:22:40.776Z,10.60
2018-12-14T05:25:07.880Z,10.47
2018-12-14T05:27:34.981Z,9.73
2018-12-14T05:30:02.122Z,9.17
2018-12-14T05:32:29.212Z,10.30
2018-12-14T05:34:56.370Z,9.53
2018-12-14T05:37:23.448Z,10.40
2018-12-14T05:39:50.535Z,11.40
2018-12-14T05:42:17.655Z,9.43
2018-12-14T05:44:44.763Z,10.90
2018-12-14T05:47:11.861Z,11.10
2018-12-14T05:49:38.965Z,11.90
2018-12-14T05:52:06.076Z,11.03
2018-12-14T05:54:33.176Z,10.20
2018-12-14T05:57:00.300Z,10.70
2018-12-14T05:59:27.388Z,10.47
2018-12-14T06:01:54.472Z,12.33
2018-12-14T06:04:21.657Z,11.87
2018-12-14T06:06:48.788Z,11.50
2018-12-14T06:09:15.960Z,12.70
2018-12-14T06:11:43.064Z,10.37
2018-12-14T06:14:10.136Z,11.03
2018-12-14T06:16:37.229Z,12.67
2018-12-14T06:19:04.321Z,11.33
2018-12-14T06:21:31.405Z,10.03
2018-12-14T06:23:58.496Z,11.67
2018-12-14T06:26:25.576Z,12.67
2018-12-14T06:28:52.674Z,11.53
2018-12-14T06:31:19.739Z,11.40
2018-12-14T06:33:46.809Z,12.47
2018-12-14T06:36:13.872Z,11.17
2018-12-14T06:38:40.955Z,12.10
2018-12-14T06:41:08.032Z,11.83
2018-12-14T06:43:35.129Z,11.03
2018-12-14T06:46:02.220Z,12.80
2018-12-14T06:48:29.310Z,13.23
2018-12-14T06:50:56.383Z,12.43
2018-12-14T06:53:23.472Z,11.03
2018-12-14T06:55:50.545Z,11.93
2018-12-14T06:58:17.656Z,10.80
2018-12-14T07:00:44.727Z,14.10
2018-12-14T07:03:11.799Z,11.83
2018-12-14T07:05:38.875Z,11.03
2018-12-14T07:08:05.953Z,10.90
2018-12-14T07:10:33.025Z,10.70
2018-12-14T07:13:00.148Z,10.80
2018-12-14T07:15:27.239Z,11.57
2018-12-14T07:17:54.368Z,12.47
2018-12-14T07:20:21.473Z,13.27
2018-12-14T07:22:48.579Z,14.73
2018-12-14T07:25:15.700Z,10.60
2018-12-14T07:27:42.776Z,11.87
2018-12-14T07:30:09.861Z,12.43
2018-12-14T07:32:38.170Z,11.27
2018-12-14T07:35:04.284Z,10.73
2018-12-14T07:37:31.366Z,11.10
2018-12-14T07:39:58.479Z,11.03
2018-12-14T07:42:25.556Z,14.40
2018-12-14T07:44:52.772Z,13.37
2018-12-14T07:47:19.772Z,14.07
2018-12-14T07:49:46.876Z,11.27
2018-12-14T07:52:13.949Z,11.33
2018-12-14T07:54:41.060Z,12.13
2018-12-14T07:57:08.200Z,11.17
2018-12-14T07:59:35.321Z,15.17
2018-12-14T08:02:02.404Z,12.13
2018-12-14T08:04:29.540Z,12.67
2018-12-14T08:06:56.659Z,12.60
2018-12-14T08:09:23.752Z,11.47
2018-12-14T08:11:50.856Z,11.20
2018-12-14T08:14:17.952Z,11.70
2018-12-14T08:16:45.051Z,12.63
2018-12-14T08:19:12.120Z,11.27
2018-12-14T08:21:39.211Z,10.93
2018-12-14T08:24:06.304Z,11.70
2018-12-14T08:26:33.380Z,11.53
2018-12-14T08:29:00.581Z,11.17
2018-12-14T08:31:27.660Z,11.07
2018-12-14T08:33:54.752Z,13.30
2018-12-14T08:36:21.828Z,14.67
2018-12-14T08:38:48.936Z,12.93
2018-12-14T08:41:16.004Z,11.13
2018-12-14T08:43:43.076Z,13.43
2018-12-14T08:46:10.156Z,12.47
2018-12-14T08:48:37.256Z,12.03
2018-12-14T08:51:04.336Z,12.73
2018-12-14T08:53:31.424Z,13.37
2018-12-14T08:55:58.509Z,11.67
2018-12-14T08:58:25.624Z,11.37
2018-12-14T09:00:52.724Z,12.33
2018-12-14T09:03:19.777Z,11.27
2018-12-14T09:05:46.873Z,12.67
2018-12-14T09:08:13.944Z,13.50
2018-12-14T09:10:41.013Z,13.53
2018-12-14T09:13:08.095Z,12.43
2018-12-14T09:15:35.204Z,12.10
2018-12-14T09:18:02.304Z,12.50
2018-12-14T09:20:29.381Z,12.50
2018-12-14T09:22:56.476Z,12.43
2018-12-14T09:25:23.557Z,13.60
2018-12-14T09:27:50.692Z,10.90
2018-12-14T09:30:17.762Z,12.37
2018-12-14T09:32:44.912Z,13.80
2018-12-14T09:35:12.039Z,12.67
2018-12-14T09:37:39.130Z,11.37
2018-12-14T09:40:06.288Z,12.00
2018-12-14T09:42:33.380Z,10.83
2018-12-14T09:45:00.459Z,11.77
2018-12-14T09:47:27.513Z,12.47
2018-12-14T09:49:54.608Z,11.53
2018-12-14T09:52:21.709Z,12.37
2018-12-14T09:54:48.823Z,12.07
2018-12-14T09:57:15.899Z,12.43
2018-12-14T09:59:43.015Z,11.70
2018-12-14T10:02:10.092Z,10.63
2018-12-14T10:04:37.196Z,12.53
2018-12-14T10:07:04.296Z,13.57
2018-12-14T10:09:31.384Z,11.83
2018-12-14T10:11:58.521Z,11.00
2018-12-14T10:14:25.641Z,12.37
2018-12-14T10:16:59.624Z,11.53
2018-12-14T10:19:26.748Z,10.93
2018-12-14T10:21:53.848Z,10.00
2018-12-14T10:24:20.922Z,11.87
2018-12-14T10:26:48.003Z,11.80
2018-12-14T10:29:15.104Z,10.27
2018-12-14T10:31:42.197Z,11.37
2018-12-14T10:34:09.317Z,12.67
2018-12-14T10:36:36.972Z,11.83
2018-12-14T10:39:04.761Z,10.73
2018-12-14T10:41:31.860Z,10.93
2018-12-14T10:43:58.935Z,10.43
2018-12-14T10:46:26.061Z,11.10
2018-12-14T10:48:59.972Z,10.57
2018-12-14T10:51:27.076Z,12.87
2018-12-14T10:53:54.149Z,11.30
2018-12-14T10:56:21.270Z,11.33
2018-12-14T10:58:48.345Z,9.70
2018-12-14T11:01:21.202Z,9.47
2018-12-14T11:03:48.266Z,9.83
2018-12-14T11:06:15.478Z,10.27
2018-12-14T11:08:42.565Z,9.27
2018-12-14T11:11:09.640Z,8.27
2018-12-14T11:13:36.756Z,8.43
2018-12-14T11:16:03.832Z,9.03
2018-12-14T11:18:30.897Z,9.93
2018-12-14T11:20:58.004Z,8.03
2018-12-14T11:23:25.096Z,9.70
2018-12-14T11:25:52.176Z,8.20
2018-12-14T11:28:19.245Z,9.60
2018-12-14T11:30:46.352Z,9.77
2018-12-14T11:33:13.428Z,10.40
2018-12-14T11:35:40.504Z,8.57
2018-12-14T11:38:07.580Z,8.53
2018-12-14T11:40:34.679Z,10.70
2018-12-14T11:43:01.748Z,7.87
2018-12-14T11:45:28.852Z,10.37
2018-12-14T11:47:55.924Z,7.70
2018-12-14T11:50:23.060Z,8.40
2018-12-14T11:52:50.164Z,6.83
2018-12-14T11:55:17.260Z,9.17
2018-12-14T11:57:44.353Z,9.07
2018-12-14T12:00:12.713Z,7.67
2018-12-14T12:02:43.107Z,7.70
2018-12-14T12:05:06.948Z,8.30
2018-12-14T12:07:34.039Z,8.03
2018-12-14T12:10:01.088Z,7.70
2018-12-14T12:12:28.229Z,7.70
2018-12-14T12:14:55.297Z,7.53
2018-12-14T12:17:22.392Z,9.03
2018-12-14T12:19:49.436Z,8.90
2018-12-14T12:22:16.514Z,10.10
2018-12-14T12:24:43.589Z,7.70
2018-12-14T12:27:10.688Z,8.03
2018-12-14T12:29:37.763Z,7.47
2018-12-14T12:32:04.872Z,7.53
2018-12-14T12:34:31.932Z,6.73
2018-12-14T12:36:59.024Z,7.53
2018-12-14T12:39:26.092Z,6.60
2018-12-14T12:41:53.188Z,7.23
2018-12-14T12:44:20.260Z,7.93
2018-12-14T12:46:47.349Z,6.87
2018-12-14T12:49:14.408Z,7.40
2018-12-14T12:51:41.529Z,8.60
2018-12-14T12:54:08.636Z,8.37
2018-12-14T12:56:35.737Z,7.23
2018-12-14T12:59:02.827Z,6.93
2018-12-14T13:01:29.939Z,7.20
2018-12-14T13:03:57.024Z,6.60
2018-12-14T13:06:24.100Z,7.40
2018-12-14T13:08:51.183Z,6.77
2018-12-14T13:11:18.276Z,6.77
2018-12-14T13:13:45.377Z,6.60
2018-12-14T13:16:12.478Z,8.70
2018-12-14T13:18:39.535Z,7.13
2018-12-14T13:21:06.643Z,7.20
2018-12-14T13:23:33.720Z,6.93
2018-12-14T13:26:00.799Z,6.93
2018-12-14T13:28:27.932Z,7.47
2018-12-14T13:30:55.046Z,6.23
2018-12-14T13:33:22.148Z,6.90
2018-12-14T13:35:49.277Z,6.90
2018-12-14T13:38:16.352Z,6.87
2018-12-14T13:40:43.476Z,7.77
2018-12-14T13:43:10.569Z,6.37
2018-12-14T13:45:37.707Z,7.23
2018-12-14T13:48:04.786Z,7.17
2018-12-14T13:50:31.885Z,7.57
2018-12-14T13:52:58.980Z,7.83
2018-12-14T13:55:26.772Z,5.93
2018-12-14T13:57:53.912Z,6.80
2018-12-14T14:00:20.990Z,7.90
2018-12-14T14:02:48.092Z,7.37
2018-12-14T14:05:15.176Z,5.97
2018-12-14T14:07:42.254Z,6.80
2018-12-14T14:10:09.361Z,6.80
2018-12-14T14:12:36.452Z,6.67
2018-12-14T14:15:04.065Z,7.17
2018-12-14T14:17:31.159Z,6.17
2018-12-14T14:19:58.263Z,6.73
2018-12-14T14:22:25.360Z,7.70
2018-12-14T14:24:52.457Z,6.67
2018-12-14T14:27:19.539Z,6.77
2018-12-14T14:29:46.676Z,6.07
2018-12-14T14:32:13.816Z,7.77
2018-12-14T14:34:40.929Z,7.90
2018-12-14T14:37:08.039Z,7.93
2018-12-14T14:39:35.124Z,6.80
2018-12-14T14:42:02.236Z,8.10
2018-12-14T14:44:29.296Z,7.63
2018-12-14T14:46:56.438Z,5.73
2018-12-14T14:49:23.541Z,7.70
2018-12-14T14:51:50.684Z,9.03
2018-12-14T14:54:17.792Z,10.07
2018-12-14T14:56:44.875Z,7.17
2018-12-14T14:59:11.956Z,6.33
2018-12-14T15:01:39.040Z,9.10
2018-12-14T15:04:06.104Z,8.27
2018-12-14T15:06:33.239Z,7.90
2018-12-14T15:09:00.348Z,7.93
2018-12-14T15:11:34.192Z,9.43
2018-12-14T15:14:01.272Z,9.77
2018-12-14T15:16:28.348Z,8.20
2018-12-14T15:18:55.436Z,8.23
2018-12-14T15:21:22.514Z,8.97
2018-12-14T15:23:49.613Z,8.50
2018-12-14T15:26:16.736Z,9.10
2018-12-14T15:28:43.888Z,8.40
2018-12-14T15:31:10.984Z,8.50
2018-12-14T15:33:38.084Z,11.53
2018-12-14T15:36:05.172Z,10.73
2018-12-14T15:38:32.276Z,11.13
2018-12-14T15:40:59.360Z,8.37
2018-12-14T15:43:26.464Z,9.90
2018-12-14T15:45:53.569Z,10.30
2018-12-14T15:48:20.672Z,9.37
2018-12-14T15:50:47.740Z,9.73
2018-12-14T15:53:14.820Z,9.37
2018-12-14T15:55:41.900Z,11.63
2018-12-14T15:58:09.016Z,10.03
2018-12-14T16:00:36.171Z,9.07
2018-12-14T16:03:03.273Z,10.30
2018-12-14T16:05:30.353Z,9.90
2018-12-14T16:07:57.454Z,10.70
2018-12-14T16:10:24.524Z,12.40
2018-12-14T16:12:51.624Z,9.30
2018-12-14T16:15:20.317Z,10.90
2018-12-14T16:17:45.824Z,11.67
2018-12-14T16:20:12.945Z,9.40
2018-12-14T16:22:40.028Z,10.67
2018-12-14T16:25:07.952Z,10.63
2018-12-14T16:27:35.054Z,11.57
2018-12-14T16:30:02.176Z,11.80
2018-12-14T16:32:29.275Z,9.17
2018-12-14T16:34:56.402Z,10.37
2018-12-14T16:37:23.470Z,10.20
2018-12-14T16:39:50.589Z,12.43
2018-12-14T16:42:17.716Z,12.07
2018-12-14T16:44:44.807Z,13.47
2018-12-14T16:47:11.980Z,12.27
2018-12-14T16:49:39.135Z,11.97
2018-12-14T16:52:06.280Z,13.90
2018-12-14T16:54:33.483Z,10.30
2018-12-14T16:57:00.580Z,11.93
2018-12-14T16:59:27.696Z,11.73
2018-12-14T17:01:54.816Z,12.77
2018-12-14T17:04:21.942Z,12.60
2018-12-14T17:06:49.046Z,11.70
2018-12-14T17:09:16.132Z,10.80
2018-12-14T17:11:43.247Z,11.23
2018-12-14T17:14:10.356Z,14.27
2018-12-14T17:16:37.485Z,12.67
2018-12-14T17:19:04.585Z,12.57
2018-12-14T17:21:31.672Z,12.10
2018-12-14T17:23:58.776Z,11.57
2018-12-14T17:26:25.880Z,12.67
2018-12-14T17:28:52.973Z,14.30
2018-12-14T17:31:20.051Z,12.43
2018-12-14T17:33:47.153Z,13.27
2018-12-14T17:36:14.208Z,12.07
2018-12-14T17:38:41.304Z,14.17
2018-12-14T17:41:08.404Z,13.13
2018-12-14T17:43:35.488Z,13.87
2018-12-14T17:46:02.602Z,13.17
2018-12-14T17:48:29.732Z,12.93
2018-12-14T17:50:56.843Z,12.90
2018-12-14T17:53:23.903Z,15.57
2018-12-14T17:55:50.964Z,14.50
2018-12-14T17:58:18.048Z,14.10
2018-12-14T18:00:45.152Z,13.53
2018-12-14T18:03:12.252Z,13.73
2018-12-14T18:05:39.364Z,12.43
2018-12-14T18:08:06.457Z,13.70
2018-12-14T18:10:33.552Z,15.03
2018-12-14T18:13:00.640Z,12.73
2018-12-14T18:15:27.736Z,15.60
2018-12-14T18:17:54.836Z,13.73
2018-12-14T18:20:21.924Z,14.30
2018-12-14T18:22:49.020Z,14.27
2018-12-14T18:25:16.131Z,15.77
2018-12-14T18:27:43.228Z,13.83
2018-12-14T18:30:10.321Z,17.23
2018-12-14T18:32:37.424Z,14.73
2018-12-14T18:35:05.727Z,13.43
2018-12-14T18:37:32.824Z,14.37
2018-12-14T18:39:59.916Z,16.47
2018-12-14T18:42:27.000Z,13.20
2018-12-14T18:44:54.113Z,12.70
2018-12-14T18:47:21.216Z,15.30
2018-12-14T18:49:48.335Z,15.80
2018-12-14T18:52:15.420Z,15.03
2018-12-14T18:54:42.569Z,15.87
2018-12-14T18:57:16.405Z,18.53
2018-12-14T18:59:43.508Z,14.57
2018-12-14T19:02:10.613Z,15.23
2018-12-14T19:04:37.727Z,15.03
2018-12-14T19:07:04.812Z,15.87
2018-12-14T19:09:31.916Z,15.50
2018-12-14T19:11:59.008Z,15.30
2018-12-14T19:14:26.097Z,17.80
2018-12-14T19:16:53.195Z,14.97
2018-12-14T19:19:20.265Z,15.43
2018-12-14T19:21:47.341Z,15.57
2018-12-14T19:24:14.620Z,13.70
2018-12-14T19:26:41.735Z,17.07
2018-12-14T19:29:08.820Z,15.93
2018-12-14T19:31:35.888Z,16.07
2018-12-14T19:34:02.964Z,15.33
2018-12-14T19:36:30.058Z,17.23
2018-12-14T19:38:57.189Z,16.07
2018-12-14T19:41:24.267Z,17.23
2018-12-14T19:43:51.360Z,17.30
2018-12-14T19:46:18.441Z,15.63
2018-12-14T19:48:45.508Z,15.73
2018-12-14T19:51:12.604Z,16.13
2018-12-14T19:53:39.668Z,17.60
2018-12-14T19:56:06.760Z,17.67
2018-12-14T19:58:33.837Z,17.03
2018-12-14T20:01:00.984Z,15.33
2018-12-14T20:03:28.045Z,15.43
2018-12-14T20:05:55.149Z,17.80
2018-12-14T20:08:22.219Z,18.50
2018-12-14T20:10:49.292Z,17.70
2018-12-14T20:13:16.377Z,17.53
2018-12-14T20:15:43.448Z,16.73
2018-12-14T20:18:10.501Z,18.03
2018-12-14T20:20:37.577Z,16.43
2018-12-14T20:23:04.683Z,17.87
2018-12-14T20:25:31.788Z,16.17
2018-12-14T20:27:58.864Z,15.77
2018-12-14T20:30:25.943Z,18.23
2018-12-14T20:32:53.017Z,16.53
2018-12-14T20:35:20.147Z,17.87
2018-12-14T20:37:47.240Z,17.00
2018-12-14T20:40:14.329Z,15.53
2018-12-14T20:42:41.460Z,17.07
2018-12-14T20:45:08.550Z,16.17
2018-12-14T20:47:35.648Z,18.63
2018-12-14T20:50:02.786Z,14.97
2018-12-14T20:52:29.916Z,14.63
2018-12-14T20:54:56.986Z,18.70
2018-12-14T20:57:24.076Z,15.70
2018-12-14T20:59:51.200Z,15.63
2018-12-14T21:02:18.307Z,17.53
2018-12-14T21:04:45.385Z,17.47
2018-12-14T21:07:12.489Z,17.00
2018-12-14T21:09:39.634Z,14.97
2018-12-14T21:12:06.717Z,15.47
2018-12-14T21:14:33.816Z,15.90
2018-12-14T21:17:00.915Z,17.37
2018-12-14T21:19:27.984Z,16.53
2018-12-14T21:21:55.078Z,16.17
2018-12-14T21:24:22.167Z,15.10
2018-12-14T21:26:49.267Z,17.97
2018-12-14T21:29:16.364Z,14.87
2018-12-14T21:31:43.463Z,17.17
2018-12-14T21:34:10.549Z,15.57
2018-12-14T21:36:37.656Z,17.20
2018-12-14T21:39:05.144Z,14.33
2018-12-14T21:41:32.248Z,15.90
2018-12-14T21:43:59.377Z,15.57
2018-12-14T21:46:32.419Z,15.97
2018-12-14T21:48:53.588Z,15.40
2018-12-14T21:51:20.680Z,17.40
2018-12-14T21:53:47.800Z,15.07
2018-12-14T21:56:14.879Z,14.97
2018-12-14T21:58:41.967Z,14.40
2018-12-14T22:01:09.031Z,16.93
2018-12-14T22:03:36.873Z,14.20
2018-12-14T22:06:03.953Z,15.83
2018-12-14T22:08:31.047Z,15.13
2018-12-14T22:10:58.139Z,14.53
2018-12-14T22:13:25.215Z,16.63
2018-12-14T22:15:52.304Z,15.23
2018-12-14T22:18:19.433Z,13.90
2018-12-14T22:20:46.519Z,16.30
2018-12-14T22:23:13.622Z,15.53
2018-12-14T22:25:40.701Z,15.33
2018-12-14T22:28:07.796Z,13.63
2018-12-14T22:30:34.884Z,14.90
2018-12-14T22:33:01.980Z,16.63
2018-12-14T22:35:29.068Z,13.30
2018-12-14T22:37:56.161Z,13.40
2018-12-14T22:40:23.256Z,13.63
2018-12-14T22:42:50.357Z,15.10
2018-12-14T22:45:17.467Z,14.47
2018-12-14T22:47:44.566Z,15.97
2018-12-14T22:50:11.658Z,13.20
2018-12-14T22:52:38.753Z,13.87
2018-12-14T22:55:05.859Z,14.50
2018-12-14T22:57:32.964Z,14.13
2018-12-14T23:00:00.064Z,13.97
2018-12-14T23:02:27.624Z,14.13
2018-12-14T23:04:54.724Z,14.80
2018-12-14T23:07:21.816Z,16.23
2018-12-14T23:09:48.972Z,13.90
2018-12-14T23:12:16.088Z,14.43
2018-12-14T23:14:43.152Z,13.87
2018-12-14T23:17:10.221Z,14.93
2018-12-14T23:19:37.326Z,13.17
2018-12-14T23:22:04.452Z,14.67
2018-12-14T23:24:31.576Z,13.90
2018-12-14T23:26:58.680Z,12.03
2018-12-14T23:29:25.772Z,16.80
2018-12-14T23:31:53.033Z,14.50
2018-12-14T23:34:20.152Z,13.33
2018-12-14T23:36:47.240Z,13.67
2018-12-14T23:39:14.352Z,13.00
2018-12-14T23:41:41.469Z,13.27
2018-12-14T23:44:08.571Z,13.87
2018-12-14T23:46:35.649Z,12.80
2018-12-14T23:49:02.749Z,13.13
2018-12-14T23:51:29.852Z,12.27
2018-12-14T23:53:56.959Z,13.20
2018-12-14T23:56:24.055Z,13.77
2018-12-14T23:58:51.160Z,10.07
